createdAt,value
2018-12-05T00:00:12.862Z,60.4
2018-12-05T00:01:02.646Z,60.4
2018-12-05T00:01:52.981Z,60.4
2018-12-05T00:02:42.761Z,60.4
2018-12-05T00:03:33.076Z,60.4
2018-12-05T00:04:22.608Z,60.3
2018-12-05T00:05:12.938Z,60.3
2018-12-05T00:06:02.716Z,60.3
2018-12-05T00:06:53.318Z,60.3
2018-12-05T00:25:04.841Z,60.1
2018-12-05T00:25:54.911Z,60.1
2018-12-05T00:26:44.956Z,60.1
2018-12-05T00:27:35.019Z,60.1
2018-12-05T00:28:24.777Z,60.1
2018-12-05T00:29:14.309Z,60.1
2018-12-05T00:30:05.459Z,60.1
2018-12-05T00:30:54.981Z,60.1
2018-12-05T00:31:44.756Z,60.1
2018-12-05T00:32:35.137Z,60.1
2018-12-05T00:33:25.963Z,60.1
2018-12-05T00:34:15.683Z,60.1
2018-12-05T00:35:05.245Z,60.1
2018-12-05T00:35:55.783Z,60.1
2018-12-05T00:36:45.543Z,60
2018-12-05T00:37:35.361Z,60
2018-12-05T00:38:26.273Z,60
2018-12-05T00:39:16.291Z,60
2018-12-05T00:40:06.900Z,60
2018-12-05T00:40:55.850Z,60
2018-12-05T00:41:46.456Z,59.9
2018-12-05T00:42:35.975Z,59.9
2018-12-05T00:43:26.643Z,59.9
2018-12-05T00:44:16.598Z,59.9
2018-12-05T00:45:06.689Z,59.9
2018-12-05T00:45:56.741Z,59.9
2018-12-05T00:46:46.515Z,59.9
2018-12-05T00:47:36.017Z,59.9
2018-12-05T00:48:26.907Z,59.9
2018-12-05T00:49:16.135Z,59.9
2018-12-05T00:50:06.753Z,59.9
2018-12-05T00:50:57.046Z,59.9
2018-12-05T00:51:46.317Z,59.9
2018-12-05T00:52:36.653Z,59.9
2018-12-05T00:53:27.254Z,59.9
2018-12-05T00:54:17.034Z,59.8
2018-12-05T00:55:07.370Z,59.8
2018-12-05T00:55:57.427Z,59.8
2018-12-05T00:56:47.202Z,59.8
2018-12-05T00:57:36.994Z,59.8
2018-12-05T00:58:27.592Z,59.8
2018-12-05T00:59:17.404Z,59.8
2018-12-05T01:00:07.719Z,59.8
2018-12-05T01:00:57.504Z,59.8
2018-12-05T01:01:47.552Z,59.8
2018-12-05T01:02:37.889Z,59.8
2018-12-05T01:03:27.411Z,59.8
2018-12-05T01:04:17.775Z,59.8
2018-12-05T01:05:09.779Z,59.8
2018-12-05T01:05:57.541Z,59.8
2018-12-05T01:06:48.177Z,59.8
2018-12-05T01:07:37.392Z,59.8
2018-12-05T01:08:28.291Z,59.8
2018-12-05T01:09:17.795Z,59.7
2018-12-05T01:10:07.342Z,59.7
2018-12-05T01:10:58.531Z,59.7
2018-12-05T01:11:48.573Z,59.7
2018-12-05T01:12:38.026Z,59.7
2018-12-05T01:13:28.339Z,59.7
2018-12-05T01:14:18.682Z,59.6
2018-12-05T01:15:08.837Z,59.6
2018-12-05T01:15:58.493Z,59.6
2018-12-05T01:16:48.308Z,59.6
2018-12-05T01:17:38.137Z,59.6
2018-12-05T01:18:28.703Z,59.6
2018-12-05T01:19:19.533Z,59.6
2018-12-05T01:20:07.978Z,59.6
2018-12-05T01:20:59.115Z,59.6
2018-12-05T01:21:48.927Z,59.6
2018-12-05T01:22:39.245Z,59.6
2018-12-05T01:23:29.325Z,59.6
2018-12-05T01:24:19.107Z,59.6
2018-12-05T01:25:08.875Z,59.5
2018-12-05T01:25:59.207Z,59.5
2018-12-05T01:26:48.697Z,59.5
2018-12-05T01:27:39.607Z,59.5
2018-12-05T01:28:28.834Z,59.5
2018-12-05T01:29:19.152Z,59.5
2018-12-05T01:30:09.739Z,59.5
2018-12-05T01:30:59.802Z,59.5
2018-12-05T01:31:49.049Z,59.5
2018-12-05T01:32:39.942Z,59.4
2018-12-05T01:33:29.737Z,59.4
2018-12-05T01:34:20.114Z,59.4
2018-12-05T01:35:10.366Z,59.4
2018-12-05T01:36:00.149Z,59.4
2018-12-05T01:36:49.472Z,59.4
2018-12-05T01:37:39.162Z,59.4
2018-12-05T01:38:29.794Z,59.4
2018-12-05T01:39:20.146Z,59.4
2018-12-05T01:40:10.449Z,59.4
2018-12-05T01:41:00.291Z,59.4
2018-12-05T01:41:50.004Z,59.4
2018-12-05T01:42:40.083Z,59.4
2018-12-05T01:43:30.161Z,59.4
2018-12-05T01:44:20.196Z,59.4
2018-12-05T01:45:10.787Z,59.3
2018-12-05T01:46:00.571Z,59.4
2018-12-05T01:46:50.359Z,59.3
2018-12-05T01:47:40.496Z,59.3
2018-12-05T01:48:30.764Z,59.3
2018-12-05T01:49:21.095Z,59.3
2018-12-05T01:50:10.581Z,59.3
2018-12-05T01:51:01.182Z,59.3
2018-12-05T01:51:50.213Z,59.3
2018-12-05T01:52:41.556Z,59.3
2018-12-05T01:53:31.376Z,59.3
2018-12-05T01:54:21.181Z,59.3
2018-12-05T01:55:10.648Z,59.3
2018-12-05T01:56:01.514Z,59.3
2018-12-05T01:56:51.558Z,59.3
2018-12-05T01:57:41.721Z,59.2
2018-12-05T01:58:30.967Z,59.2
2018-12-05T01:59:21.498Z,59.2
2018-12-05T02:00:11.820Z,59.2
2018-12-05T02:01:01.390Z,59.2
2018-12-05T02:01:51.983Z,59.2
2018-12-05T02:02:41.438Z,59.2
2018-12-05T02:03:32.056Z,59.2
2018-12-05T02:04:21.278Z,59.2
2018-12-05T02:05:11.608Z,59.1
2018-12-05T02:06:01.673Z,59.1
2018-12-05T02:06:52.290Z,59.1
2018-12-05T02:07:42.333Z,59.1
2018-12-05T02:08:31.570Z,59.1
2018-12-05T02:09:22.453Z,59.1
2018-12-05T02:10:12.230Z,59.1
2018-12-05T02:11:02.815Z,59.1
2018-12-05T02:11:52.354Z,59.1
2018-12-05T02:12:41.892Z,59.1
2018-12-05T02:13:32.458Z,59.1
2018-12-05T02:14:22.617Z,59.1
2018-12-05T02:15:12.583Z,59.1
2018-12-05T02:16:02.142Z,59
2018-12-05T02:16:52.973Z,59
2018-12-05T02:17:42.210Z,59
2018-12-05T02:18:32.527Z,59
2018-12-05T02:19:23.137Z,59
2018-12-05T02:20:12.992Z,59
2018-12-05T02:21:03.652Z,59
2018-12-05T02:21:53.050Z,58.9
2018-12-05T02:22:42.504Z,59
2018-12-05T02:23:33.141Z,58.9
2018-12-05T02:24:22.962Z,58.9
2018-12-05T02:25:13.524Z,58.9
2018-12-05T02:26:03.102Z,58.9
2018-12-05T02:26:53.644Z,58.9
2018-12-05T02:27:43.290Z,58.9
2018-12-05T02:28:33.221Z,58.9
2018-12-05T02:29:23.536Z,58.9
2018-12-05T02:30:14.030Z,58.9
2018-12-05T02:31:03.699Z,58.9
2018-12-05T02:31:53.998Z,58.9
2018-12-05T02:32:44.096Z,58.9
2018-12-05T02:33:34.124Z,58.9
2018-12-05T02:34:23.986Z,58.8
2018-12-05T02:35:13.681Z,58.8
2018-12-05T02:36:04.316Z,58.8
2018-12-05T02:36:53.868Z,58.9
2018-12-05T02:37:43.869Z,59.1
2018-12-05T02:38:34.203Z,59.2
2018-12-05T02:39:24.269Z,59.4
2018-12-05T02:40:14.566Z,59.6
2018-12-05T02:41:04.350Z,59.8
2018-12-05T02:41:54.231Z,60.1
2018-12-05T02:42:43.680Z,60.3
2018-12-05T02:43:34.265Z,60.3
2018-12-05T02:44:24.927Z,60.4
2018-12-05T02:45:14.433Z,60.8
2018-12-05T02:46:05.002Z,60.9
2018-12-05T02:46:54.443Z,61
2018-12-05T02:47:44.927Z,61.1
2018-12-05T02:48:34.849Z,61.3
2018-12-05T02:49:24.387Z,61.5
2018-12-05T02:50:15.001Z,61.7
2018-12-05T02:51:04.780Z,61.9
2018-12-05T02:51:54.825Z,62.1
2018-12-05T02:52:44.887Z,62.1
2018-12-05T02:53:35.018Z,62.3
2018-12-05T02:54:25.321Z,62.5
2018-12-05T02:55:15.649Z,62.5
2018-12-05T02:56:05.655Z,62.6
2018-12-05T02:56:55.255Z,62.6
2018-12-05T02:57:45.644Z,62.9
2018-12-05T02:58:36.285Z,62.9
2018-12-05T02:59:25.408Z,63
2018-12-05T03:00:17.566Z,63.1
2018-12-05T03:01:05.831Z,63.3
2018-12-05T03:01:55.508Z,63.4
2018-12-05T03:02:45.858Z,63.4
2018-12-05T03:03:35.629Z,63.4
2018-12-05T03:04:25.974Z,63.6
2018-12-05T03:05:15.859Z,63.8
2018-12-05T03:06:06.137Z,63.8
2018-12-05T03:06:56.426Z,63.9
2018-12-05T03:07:45.912Z,63.9
2018-12-05T03:08:36.262Z,64
2018-12-05T03:09:26.869Z,64.2
2018-12-05T03:10:16.098Z,64.3
2018-12-05T03:11:06.421Z,64.3
2018-12-05T03:11:56.472Z,64.3
2018-12-05T03:12:46.533Z,64.5
2018-12-05T03:13:36.322Z,64.5
2018-12-05T03:14:26.644Z,64.6
2018-12-05T03:15:16.696Z,64.6
2018-12-05T03:16:06.510Z,64.7
2018-12-05T03:16:56.815Z,64.8
2018-12-05T03:17:47.140Z,64.8
2018-12-05T03:18:36.941Z,64.8
2018-12-05T03:19:27.002Z,64.8
2018-12-05T03:20:17.036Z,64.9
2018-12-05T03:21:07.403Z,65.1
2018-12-05T03:21:57.452Z,65.1
2018-12-05T03:22:47.505Z,65.1
2018-12-05T03:23:37.292Z,65.1
2018-12-05T03:24:27.612Z,65.3
2018-12-05T03:25:17.385Z,65.3
2018-12-05T03:26:07.447Z,65.4
2018-12-05T03:26:57.259Z,65.4
2018-12-05T03:27:47.867Z,65.4
2018-12-05T03:28:37.897Z,65.5
2018-12-05T03:29:27.943Z,65.6
2018-12-05T03:30:17.970Z,65.6
2018-12-05T03:31:07.587Z,65.6
2018-12-05T03:31:57.946Z,65.6
2018-12-05T03:32:48.265Z,65.6
2018-12-05T03:33:38.089Z,65.8
2018-12-05T03:34:28.294Z,65.9
2018-12-05T03:35:19.475Z,65.9
2018-12-05T03:36:08.127Z,65.9
2018-12-05T03:36:57.907Z,65.9
2018-12-05T03:37:47.967Z,65.9
2018-12-05T03:38:38.661Z,65.9
2018-12-05T03:39:28.649Z,65.9
2018-12-05T03:40:18.463Z,65.9
2018-12-05T03:41:08.313Z,65.9
2018-12-05T03:41:58.344Z,65.9
2018-12-05T03:42:48.579Z,65.9
2018-12-05T03:43:38.924Z,65.9
2018-12-05T03:44:28.708Z,65.9
2018-12-05T03:45:18.758Z,65.9
2018-12-05T03:46:08.551Z,65.9
2018-12-05T03:46:58.857Z,65.9
2018-12-05T03:47:49.228Z,65.9
2018-12-05T03:48:39.009Z,65.9
2018-12-05T03:49:29.038Z,65.9
2018-12-05T03:50:18.608Z,65.8
2018-12-05T03:51:09.495Z,65.8
2018-12-05T03:51:58.933Z,65.8
2018-12-05T03:52:49.550Z,65.8
2018-12-05T03:53:39.631Z,65.8
2018-12-05T03:54:29.725Z,65.8
2018-12-05T03:55:21.247Z,65.8
2018-12-05T03:56:09.564Z,65.8
2018-12-05T03:56:59.916Z,65.8
2018-12-05T03:57:49.648Z,65.8
2018-12-05T03:58:39.462Z,65.8
2018-12-05T03:59:29.469Z,65.8
2018-12-05T04:00:19.815Z,65.8
2018-12-05T04:01:10.088Z,65.8
2018-12-05T04:02:00.272Z,65.8
2018-12-05T04:02:50.238Z,65.7
2018-12-05T04:03:39.738Z,65.7
2018-12-05T04:04:30.338Z,65.7
2018-12-05T04:05:20.408Z,65.7
2018-12-05T04:06:10.207Z,65.7
2018-12-05T04:07:01.768Z,65.7
2018-12-05T04:07:50.318Z,65.6
2018-12-05T04:08:40.656Z,65.6
2018-12-05T04:09:30.140Z,65.6
2018-12-05T04:10:20.496Z,65.6
2018-12-05T04:11:10.267Z,65.6
2018-12-05T04:12:00.312Z,65.6
2018-12-05T04:12:52.142Z,65.6
2018-12-05T04:13:40.127Z,65.6
2018-12-05T04:14:30.630Z,65.6
2018-12-05T04:15:20.840Z,65.6
2018-12-05T04:16:10.856Z,65.6
2018-12-05T04:17:01.025Z,65.5
2018-12-05T04:17:51.180Z,65.5
2018-12-05T04:18:41.380Z,65.5
2018-12-05T04:19:31.140Z,65.5
2018-12-05T04:20:21.160Z,65.5
2018-12-05T04:21:10.929Z,65.4
2018-12-05T04:22:01.535Z,65.5
2018-12-05T04:22:51.332Z,65.4
2018-12-05T04:23:41.770Z,65.4
2018-12-05T04:24:31.787Z,65.4
2018-12-05T04:25:21.209Z,65.4
2018-12-05T04:26:11.554Z,65.4
2018-12-05T04:27:01.095Z,65.4
2018-12-05T04:27:51.674Z,65.4
2018-12-05T04:28:41.454Z,65.4
2018-12-05T04:29:31.777Z,65.4
2018-12-05T04:30:22.089Z,65.4
2018-12-05T04:31:12.159Z,65.4
2018-12-05T04:32:01.974Z,65.3
2018-12-05T04:32:52.329Z,65.4
2018-12-05T04:33:41.794Z,65.3
2018-12-05T04:34:32.136Z,65.3
2018-12-05T04:35:22.183Z,65.3
2018-12-05T04:36:12.798Z,65.3
2018-12-05T04:37:02.686Z,65.3
2018-12-05T04:54:17.187Z,65.1
2018-12-05T04:55:05.725Z,65.1
2018-12-05T04:55:55.770Z,65.1
2018-12-05T04:56:45.885Z,65.1
2018-12-05T04:57:35.903Z,65.1
2018-12-05T04:58:26.272Z,65.1
2018-12-05T04:59:19.094Z,65.1
2018-12-05T05:00:05.825Z,65
2018-12-05T05:00:55.828Z,65
2018-12-05T05:01:46.188Z,65
2018-12-05T05:02:35.946Z,65
2018-12-05T05:03:25.987Z,65
2018-12-05T05:04:16.329Z,65
2018-12-05T05:05:06.644Z,64.9
2018-12-05T05:05:56.578Z,64.9
2018-12-05T05:06:46.333Z,64.9
2018-12-05T05:07:36.312Z,64.9
2018-12-05T05:08:26.627Z,64.9
2018-12-05T05:09:16.959Z,64.9
2018-12-05T05:10:05.921Z,64.9
2018-12-05T05:10:57.069Z,64.9
2018-12-05T05:11:46.919Z,64.9
2018-12-05T05:12:36.894Z,64.9
2018-12-05T05:13:27.264Z,64.9
2018-12-05T05:14:16.474Z,64.9
2018-12-05T05:15:06.814Z,64.9
2018-12-05T05:15:56.851Z,64.9
2018-12-05T05:16:47.186Z,64.9
2018-12-05T05:17:36.981Z,64.9
2018-12-05T05:18:27.302Z,64.8
2018-12-05T05:19:17.527Z,64.8
2018-12-05T05:20:07.656Z,64.8
2018-12-05T05:20:57.209Z,64.8
2018-12-05T05:21:47.254Z,64.8
2018-12-05T05:22:37.716Z,64.8
2018-12-05T05:23:27.658Z,64.8
2018-12-05T05:24:17.436Z,64.8
2018-12-05T05:25:08.091Z,64.8
2018-12-05T05:25:57.575Z,64.8
2018-12-05T05:26:47.868Z,64.8
2018-12-05T05:27:38.008Z,64.8
2018-12-05T05:28:27.701Z,64.8
2018-12-05T05:29:18.308Z,64.7
2018-12-05T05:30:08.709Z,64.7
2018-12-05T05:30:57.866Z,64.7
2018-12-05T05:31:48.480Z,64.7
2018-12-05T05:32:37.458Z,64.7
2018-12-05T05:33:28.348Z,64.7
2018-12-05T05:34:18.377Z,64.7
2018-12-05T05:35:08.698Z,64.6
2018-12-05T05:35:58.225Z,64.6
2018-12-05T05:36:48.565Z,64.6
2018-12-05T05:37:38.620Z,64.6
2018-12-05T05:38:28.167Z,64.6
2018-12-05T05:39:18.985Z,64.6
2018-12-05T05:40:09.094Z,64.6
2018-12-05T05:40:59.104Z,64.6
2018-12-05T05:41:48.971Z,64.6
2018-12-05T05:42:38.657Z,64.6
2018-12-05T05:43:28.722Z,64.6
2018-12-05T05:44:19.072Z,64.6
2018-12-05T05:45:09.112Z,64.5
2018-12-05T05:45:59.446Z,64.5
2018-12-05T05:46:49.554Z,64.5
2018-12-05T05:47:39.562Z,64.5
2018-12-05T05:48:29.319Z,64.5
2018-12-05T05:49:19.660Z,64.5
2018-12-05T05:50:09.456Z,64.5
2018-12-05T05:50:59.514Z,64.4
2018-12-05T05:51:49.283Z,64.5
2018-12-05T05:52:39.359Z,64.4
2018-12-05T05:53:29.122Z,64.4
2018-12-05T05:54:20.023Z,64.4
2018-12-05T05:55:10.080Z,64.4
2018-12-05T05:56:00.127Z,64.4
2018-12-05T05:56:49.942Z,64.4
2018-12-05T05:57:39.967Z,64.4
2018-12-05T05:58:29.744Z,64.4
2018-12-05T05:59:20.066Z,64.4
2018-12-05T06:00:10.416Z,64.4
2018-12-05T06:00:59.917Z,64.4
2018-12-05T06:01:50.526Z,64.4
2018-12-05T06:02:40.312Z,64.3
2018-12-05T06:03:30.422Z,64.3
2018-12-05T06:04:20.699Z,64.3
2018-12-05T06:05:10.471Z,64.3
2018-12-05T06:06:00.491Z,64.3
2018-12-05T06:06:50.296Z,64.3
2018-12-05T06:07:40.376Z,64.3
2018-12-05T06:08:30.419Z,64.3
2018-12-05T06:09:20.754Z,64.3
2018-12-05T06:10:10.547Z,64.3
2018-12-05T06:11:00.602Z,64.3
2018-12-05T06:11:51.196Z,64.3
2018-12-05T06:12:41.271Z,64.3
2018-12-05T06:13:30.749Z,64.3
2018-12-05T06:14:21.093Z,64.3
2018-12-05T06:15:11.425Z,64.2
2018-12-05T06:16:01.496Z,64.2
2018-12-05T06:16:50.981Z,64.2
2018-12-05T06:17:41.043Z,64.2
2018-12-05T06:18:31.111Z,64.2
2018-12-05T06:19:21.783Z,64.1
2018-12-05T06:20:11.483Z,64.1
2018-12-05T06:21:01.323Z,64.1
2018-12-05T06:21:51.371Z,64.1
2018-12-05T06:22:41.375Z,64.1
2018-12-05T06:23:31.759Z,64.1
2018-12-05T06:24:21.836Z,64.1
2018-12-05T06:25:12.148Z,64.1
2018-12-05T06:26:01.928Z,64.1
2018-12-05T06:26:51.940Z,64.1
2018-12-05T06:27:41.765Z,64.1
2018-12-05T06:28:32.371Z,64.1
2018-12-05T06:29:22.377Z,64.1
2018-12-05T06:30:11.890Z,64.1
2018-12-05T06:31:02.215Z,64
2018-12-05T06:31:52.534Z,64
2018-12-05T06:32:41.775Z,64
2018-12-05T06:33:34.605Z,64
2018-12-05T06:34:22.728Z,64
2018-12-05T06:35:12.779Z,64
2018-12-05T06:36:02.287Z,64
2018-12-05T06:36:52.862Z,64
2018-12-05T06:37:43.199Z,63.9
2018-12-05T06:38:32.449Z,63.9
2018-12-05T06:39:23.061Z,63.9
2018-12-05T06:40:12.564Z,63.9
2018-12-05T06:41:02.914Z,63.9
2018-12-05T06:41:53.014Z,63.9
2018-12-05T06:42:43.284Z,63.9
2018-12-05T06:43:33.346Z,63.9
2018-12-05T06:44:23.402Z,63.9
2018-12-05T06:45:13.544Z,63.8
2018-12-05T06:46:02.679Z,63.8
2018-12-05T06:46:53.289Z,63.8
2018-12-05T06:47:43.614Z,63.8
2018-12-05T06:48:33.711Z,63.8
2018-12-05T06:49:23.199Z,63.8
2018-12-05T06:50:13.811Z,63.8
2018-12-05T06:51:03.889Z,63.8
2018-12-05T06:51:52.816Z,63.7
2018-12-05T06:52:43.143Z,63.7
2018-12-05T06:53:33.751Z,63.7
2018-12-05T06:54:23.818Z,63.7
2018-12-05T06:55:13.938Z,63.7
2018-12-05T06:56:04.218Z,63.6
2018-12-05T06:56:53.976Z,63.6
2018-12-05T06:57:44.036Z,63.6
2018-12-05T06:58:33.820Z,63.6
2018-12-05T06:59:24.431Z,63.6
2018-12-05T07:00:13.962Z,63.6
2018-12-05T07:01:04.000Z,63.6
2018-12-05T07:01:54.373Z,63.6
2018-12-05T07:02:44.650Z,63.6
2018-12-05T07:03:34.153Z,63.6
2018-12-05T07:04:24.494Z,63.5
2018-12-05T07:05:14.547Z,63.6
2018-12-05T07:06:04.607Z,63.6
2018-12-05T07:06:54.668Z,63.5
2018-12-05T07:07:44.740Z,63.5
2018-12-05T07:08:34.804Z,63.5
2018-12-05T07:09:24.839Z,63.4
2018-12-05T07:10:14.905Z,63.4
2018-12-05T07:11:05.236Z,63.4
2018-12-05T07:11:54.709Z,63.4
2018-12-05T07:12:45.317Z,63.4
2018-12-05T07:13:35.417Z,63.4
2018-12-05T07:14:25.222Z,63.4
2018-12-05T07:15:14.964Z,63.4
2018-12-05T07:16:05.301Z,63.4
2018-12-05T07:16:55.346Z,63.3
2018-12-05T07:17:45.189Z,63.4
2018-12-05T07:18:36.560Z,63.3
2018-12-05T07:19:26.072Z,63.3
2018-12-05T07:20:15.691Z,63.3
2018-12-05T07:21:05.637Z,63.3
2018-12-05T07:21:55.416Z,63.3
2018-12-05T07:22:45.749Z,63.3
2018-12-05T07:23:36.083Z,63.3
2018-12-05T07:24:26.172Z,63.3
2018-12-05T07:25:15.650Z,63.3
2018-12-05T07:26:06.062Z,63.3
2018-12-05T07:26:56.044Z,63.2
2018-12-05T07:27:46.088Z,63.2
2018-12-05T07:28:36.468Z,63.1
2018-12-05T07:29:26.181Z,63.2
2018-12-05T07:30:15.716Z,63.1
2018-12-05T07:31:06.065Z,63.1
2018-12-05T07:31:56.113Z,63.1
2018-12-05T07:32:46.553Z,63.1
2018-12-05T07:33:36.775Z,63.1
2018-12-05T07:34:26.598Z,63.1
2018-12-05T07:35:16.601Z,63.1
2018-12-05T07:36:06.113Z,63.1
2018-12-05T07:36:56.178Z,63.1
2018-12-05T07:37:46.231Z,63.1
2018-12-05T07:38:36.883Z,63.1
2018-12-05T07:39:26.623Z,63
2018-12-05T07:40:16.956Z,63
2018-12-05T07:41:07.007Z,63
2018-12-05T07:41:57.347Z,63
2018-12-05T07:42:46.928Z,62.9
2018-12-05T07:43:37.183Z,62.9
2018-12-05T07:44:27.515Z,62.9
2018-12-05T07:45:17.570Z,62.9
2018-12-05T07:46:07.633Z,62.9
2018-12-05T07:46:57.693Z,62.9
2018-12-05T07:47:47.815Z,62.9
2018-12-05T07:48:37.790Z,62.9
2018-12-05T07:49:27.927Z,62.9
2018-12-05T07:50:19.702Z,62.9
2018-12-05T07:51:07.702Z,62.8
2018-12-05T07:51:58.015Z,62.8
2018-12-05T07:52:47.804Z,62.8
2018-12-05T07:53:37.646Z,62.8
2018-12-05T07:54:27.919Z,62.8
2018-12-05T07:55:17.972Z,62.8
2018-12-05T07:56:08.314Z,62.8
2018-12-05T07:56:57.805Z,62.7
2018-12-05T07:57:48.144Z,62.7
2018-12-05T07:58:38.194Z,62.7
2018-12-05T07:59:28.534Z,62.7
2018-12-05T08:00:18.571Z,62.7
2018-12-05T08:01:07.840Z,62.7
2018-12-05T08:01:58.714Z,62.6
2018-12-05T08:02:48.491Z,62.6
2018-12-05T08:03:38.792Z,62.6
2018-12-05T08:04:28.614Z,62.6
2018-12-05T08:05:18.944Z,62.6
2018-12-05T08:06:09.078Z,62.6
2018-12-05T08:06:59.069Z,62.6
2018-12-05T08:07:49.113Z,62.6
2018-12-05T08:08:39.262Z,62.5
2018-12-05T08:09:29.013Z,62.5
2018-12-05T08:10:19.437Z,62.5
2018-12-05T08:11:09.028Z,62.5
2018-12-05T08:11:59.486Z,62.5
2018-12-05T08:12:49.178Z,62.4
2018-12-05T08:13:39.520Z,62.4
2018-12-05T08:14:29.309Z,62.4
2018-12-05T08:15:19.360Z,62.4
2018-12-05T08:16:09.672Z,62.4
2018-12-05T08:16:58.642Z,62.4
2018-12-05T08:17:49.820Z,62.4
2018-12-05T08:18:39.325Z,62.4
2018-12-05T08:19:29.942Z,62.4
2018-12-05T08:20:19.711Z,62.3
2018-12-05T08:21:09.552Z,62.3
2018-12-05T08:21:59.560Z,62.3
2018-12-05T08:22:49.885Z,62.3
2018-12-05T08:23:40.007Z,62.3
2018-12-05T08:24:30.250Z,62.3
2018-12-05T08:25:20.319Z,62.3
2018-12-05T08:26:10.164Z,62.3
2018-12-05T08:27:00.444Z,62.3
2018-12-05T08:27:50.315Z,62.2
2018-12-05T08:28:40.557Z,62.2
2018-12-05T08:29:30.607Z,62.2
2018-12-05T08:30:20.671Z,62.2
2018-12-05T08:31:10.801Z,62.2
2018-12-05T08:32:00.796Z,62.1
2018-12-05T08:32:50.579Z,62.1
2018-12-05T08:33:40.361Z,62.1
2018-12-05T08:34:30.966Z,62.1
2018-12-05T08:35:21.016Z,62.1
2018-12-05T08:36:10.806Z,62.1
2018-12-05T08:37:01.146Z,62.1
2018-12-05T08:37:50.363Z,62.1
2018-12-05T08:38:40.989Z,62
2018-12-05T08:39:31.294Z,62
2018-12-05T08:40:21.084Z,62
2018-12-05T08:41:11.438Z,61.9
2018-12-05T08:42:01.208Z,61.9
2018-12-05T08:42:51.605Z,61.9
2018-12-05T08:43:41.608Z,61.9
2018-12-05T08:44:31.655Z,61.9
2018-12-05T08:45:21.154Z,61.9
2018-12-05T08:46:11.793Z,61.9
2018-12-05T08:47:01.270Z,61.9
2018-12-05T08:47:51.887Z,61.9
2018-12-05T08:48:41.955Z,61.9
2018-12-05T08:49:31.480Z,61.8
2018-12-05T08:50:21.517Z,61.8
2018-12-05T08:51:12.098Z,61.8
2018-12-05T08:52:01.622Z,61.8
2018-12-05T08:52:52.242Z,61.8
2018-12-05T09:08:39.674Z,61.5
2018-12-05T09:09:30.089Z,61.4
2018-12-05T09:10:19.829Z,61.4
2018-12-05T09:11:09.615Z,61.4
2018-12-05T09:11:59.654Z,61.4
2018-12-05T09:12:49.996Z,61.4
2018-12-05T09:13:39.884Z,61.4
2018-12-05T09:14:32.611Z,61.4
2018-12-05T09:15:20.457Z,61.3
2018-12-05T09:16:10.516Z,61.4
2018-12-05T09:17:00.278Z,61.3
2018-12-05T09:17:50.856Z,61.3
2018-12-05T09:18:40.643Z,61.3
2018-12-05T09:19:30.177Z,61.3
2018-12-05T09:20:20.508Z,61.3
2018-12-05T09:21:10.321Z,61.3
2018-12-05T09:22:00.348Z,61.3
2018-12-05T09:22:51.215Z,61.3
2018-12-05T09:23:40.716Z,61.3
2018-12-05T09:24:30.526Z,61.2
2018-12-05T09:25:20.656Z,61.2
2018-12-05T09:26:11.186Z,61.2
2018-12-05T09:27:00.418Z,61.1
2018-12-05T09:27:51.316Z,61.1
2018-12-05T09:28:40.527Z,61.1
2018-12-05T09:29:30.933Z,61.1
2018-12-05T09:30:20.642Z,61.1
2018-12-05T09:31:10.780Z,61.1
2018-12-05T09:32:01.307Z,61.1
2018-12-05T09:32:51.725Z,61.1
2018-12-05T09:33:41.433Z,61
2018-12-05T09:34:31.738Z,61
2018-12-05T09:35:22.157Z,60.9
2018-12-05T09:36:11.881Z,61
2018-12-05T09:37:02.025Z,61
2018-12-05T09:37:51.992Z,60.9
2018-12-05T09:38:42.042Z,60.9
2018-12-05T09:39:32.093Z,60.9
2018-12-05T09:40:21.857Z,60.9
2018-12-05T09:41:11.662Z,60.9
2018-12-05T09:42:01.737Z,60.9
2018-12-05T09:42:52.327Z,60.9
2018-12-05T09:43:42.409Z,60.8
2018-12-05T09:44:32.494Z,60.8
2018-12-05T09:45:22.244Z,60.8
2018-12-05T09:46:12.314Z,60.8
2018-12-05T09:47:02.352Z,60.8
2018-12-05T09:47:51.826Z,60.8
2018-12-05T09:48:42.194Z,60.8
2018-12-05T09:49:32.823Z,60.8
2018-12-05T09:50:22.897Z,60.7
2018-12-05T09:51:12.911Z,60.7
2018-12-05T09:52:02.976Z,60.7
2018-12-05T09:52:53.325Z,60.7
2018-12-05T09:53:42.654Z,60.7
2018-12-05T09:54:33.189Z,60.6
2018-12-05T09:55:23.176Z,60.6
2018-12-05T09:56:12.417Z,60.6
2018-12-05T09:57:03.044Z,60.6
2018-12-05T09:57:53.366Z,60.6
2018-12-05T09:58:42.676Z,60.6
2018-12-05T09:59:33.458Z,60.6
2018-12-05T10:00:23.082Z,60.6
2018-12-05T10:01:13.068Z,60.5
2018-12-05T10:02:03.685Z,60.5
2018-12-05T10:02:53.470Z,60.5
2018-12-05T10:03:42.664Z,60.5
2018-12-05T10:04:33.560Z,60.4
2018-12-05T10:05:23.902Z,60.4
2018-12-05T10:06:13.400Z,60.4
2018-12-05T10:07:03.466Z,60.4
2018-12-05T10:07:54.065Z,60.4
2018-12-05T10:08:43.845Z,60.4
2018-12-05T10:09:33.910Z,60.4
2018-12-05T10:10:23.474Z,60.4
2018-12-05T10:11:13.767Z,60.4
2018-12-05T10:12:04.098Z,60.3
2018-12-05T10:12:54.232Z,60.3
2018-12-05T10:13:44.767Z,60.3
2018-12-05T10:14:33.974Z,60.3
2018-12-05T10:15:24.035Z,60.3
2018-12-05T10:16:14.654Z,60.3
2018-12-05T10:17:04.140Z,60.3
2018-12-05T10:17:54.502Z,60.2
2018-12-05T10:18:44.778Z,60.2
2018-12-05T10:19:34.609Z,60.2
2018-12-05T10:20:23.824Z,60.2
2018-12-05T10:21:14.993Z,60.2
2018-12-05T10:22:04.279Z,60.1
2018-12-05T10:22:54.911Z,60.1
2018-12-05T10:23:44.601Z,60.1
2018-12-05T10:24:35.221Z,60.1
2018-12-05T10:25:24.426Z,60.1
2018-12-05T10:26:14.606Z,60.1
2018-12-05T10:27:05.096Z,60.1
2018-12-05T10:27:55.160Z,60.1
2018-12-05T10:28:45.751Z,60
2018-12-05T10:29:35.349Z,60
2018-12-05T10:30:25.310Z,60
2018-12-05T10:31:15.666Z,60
2018-12-05T10:32:07.105Z,59.9
2018-12-05T10:32:55.231Z,59.9
2018-12-05T10:33:45.563Z,59.9
2018-12-05T10:34:35.620Z,59.9
2018-12-05T10:35:26.191Z,59.9
2018-12-05T10:36:15.737Z,59.9
2018-12-05T10:37:05.525Z,59.9
2018-12-05T10:37:57.345Z,59.9
2018-12-05T10:38:45.900Z,59.8
2018-12-05T10:39:36.012Z,59.8
2018-12-05T10:40:26.255Z,59.8
2018-12-05T10:41:15.929Z,59.8
2018-12-05T10:42:05.875Z,59.8
2018-12-05T10:42:55.700Z,59.8
2018-12-05T10:43:46.238Z,59.8
2018-12-05T10:44:36.642Z,59.8
2018-12-05T10:45:26.689Z,59.8
2018-12-05T10:46:16.417Z,59.7
2018-12-05T10:47:06.477Z,59.7
2018-12-05T10:47:56.256Z,59.7
2018-12-05T10:48:46.322Z,59.7
2018-12-05T10:49:36.667Z,59.6
2018-12-05T10:50:26.717Z,59.6
2018-12-05T10:51:17.044Z,59.6
2018-12-05T10:52:07.102Z,59.6
2018-12-05T10:52:57.162Z,59.6
2018-12-05T10:53:46.649Z,59.6
2018-12-05T10:54:37.397Z,59.6
2018-12-05T10:55:27.046Z,59.6
2018-12-05T10:56:16.851Z,59.6
2018-12-05T10:57:07.156Z,59.5
2018-12-05T10:57:57.318Z,59.5
2018-12-05T10:58:47.296Z,59.5
2018-12-05T10:59:37.103Z,59.4
2018-12-05T11:00:27.419Z,59.4
2018-12-05T11:01:17.175Z,59.4
2018-12-05T11:02:07.778Z,59.4
2018-12-05T11:02:57.850Z,59.4
2018-12-05T11:03:47.899Z,59.4
2018-12-05T11:04:37.988Z,59.4
2018-12-05T11:05:27.735Z,59.4
2018-12-05T11:06:17.800Z,59.4
2018-12-05T11:07:07.863Z,59.3
2018-12-05T11:07:57.900Z,59.3
2018-12-05T11:08:47.970Z,59.3
2018-12-05T11:09:38.015Z,59.3
2018-12-05T11:10:28.070Z,59.3
2018-12-05T11:11:17.912Z,59.3
2018-12-05T11:12:08.207Z,59.3
2018-12-05T11:12:58.244Z,59.3
2018-12-05T11:13:48.595Z,59.3
2018-12-05T11:14:38.642Z,59.2
2018-12-05T11:15:28.707Z,59.2
2018-12-05T11:16:18.753Z,59.2
2018-12-05T11:17:08.815Z,59.1
2018-12-05T11:17:58.899Z,59.1
2018-12-05T11:18:48.932Z,59.1
2018-12-05T11:19:38.752Z,59.1
2018-12-05T11:20:28.570Z,59.1
2018-12-05T11:21:19.086Z,59.1
2018-12-05T11:22:09.217Z,59.1
2018-12-05T11:22:59.220Z,59.1
2018-12-05T11:23:50.954Z,59
2018-12-05T11:24:39.041Z,59.1
2018-12-05T11:25:28.559Z,59
2018-12-05T11:26:19.162Z,59
2018-12-05T11:27:09.519Z,59
2018-12-05T11:27:59.529Z,58.9
2018-12-05T11:28:49.336Z,58.9
2018-12-05T11:29:39.189Z,58.9
2018-12-05T11:30:28.984Z,58.9
2018-12-05T11:31:19.023Z,58.9
2018-12-05T11:32:09.301Z,58.9
2018-12-05T11:32:59.389Z,58.9
2018-12-05T11:33:49.966Z,58.9
2018-12-05T11:34:39.170Z,58.9
2018-12-05T11:35:30.032Z,58.9
2018-12-05T11:36:19.689Z,58.8
2018-12-05T11:37:10.197Z,58.8
2018-12-05T11:37:59.978Z,58.8
2018-12-05T11:38:50.305Z,58.8
2018-12-05T11:39:40.097Z,58.8
2018-12-05T11:40:30.134Z,58.8
2018-12-05T11:41:19.902Z,58.8
2018-12-05T11:42:10.357Z,58.7
2018-12-05T11:43:00.357Z,58.7
2018-12-05T11:43:50.639Z,58.7
2018-12-05T11:44:40.704Z,58.7
2018-12-05T11:45:30.475Z,58.7
2018-12-05T11:46:20.540Z,58.6
2018-12-05T11:47:10.404Z,58.6
2018-12-05T11:48:00.894Z,58.6
2018-12-05T11:48:50.706Z,58.6
2018-12-05T11:49:40.793Z,58.6
2018-12-05T11:52:10.999Z,58.5
2018-12-05T11:53:51.568Z,58.5
2018-12-05T11:54:41.399Z,58.5
2018-12-05T11:55:31.589Z,58.5
2018-12-05T11:56:21.509Z,58.5
2018-12-05T11:57:11.282Z,58.4
2018-12-05T11:58:01.871Z,58.4
2018-12-05T11:58:51.913Z,58.4
2018-12-05T11:59:41.179Z,58.4